Time;durP1;ratioP1;P1;durP2;ratioP2;P2;SDS_P1;SDS_P2;PMS_P1;PMS_P2;Temp;Humidity;BMP_temperature;BMP_pressure;BME280_temperature;BME280_humidity;BME280_pressure;Samples;Min_cycle;Max_cycle;Signal;HPM_P1;HPM_P2
2022/08/08 00:00:47;;;;;;;14.93;10.80;;;;;;;20.13;80.32;99852.72;6138229;23;20024;-68
2022/08/08 00:03:53;;;;;;;14.05;10.73;;;;;;;20.16;80.05;99852.38;6112904;23;20857;-68
2022/08/08 00:06:34;;;;;;;16.13;10.95;;;;;;;20.19;79.75;99854.78;6021204;23;20019;-70
2022/08/08 00:09:20;;;;;;;14.02;11.32;;;;;;;20.19;79.84;99846.66;6021042;23;20018;-68
2022/08/08 00:12:00;;;;;;;14.52;9.85;;;;;;;20.20;79.41;99852.91;6020706;23;20363;-68
2022/08/08 00:14:29;;;;;;;15.45;10.68;;;;;;;20.14;79.54;99848.16;6020332;23;20097;-67
2022/08/08 00:17:16;;;;;;;15.07;11.48;;;;;;;20.11;79.60;99845.75;6020317;23;20022;-71
2022/08/08 00:19:47;;;;;;;15.00;12.35;;;;;;;20.12;79.30;99859.13;6018866;23;20034;-70
2022/08/08 00:22:24;;;;;;;15.85;12.45;;;;;;;20.14;78.96;99856.25;6019706;23;20089;-70
2022/08/08 00:24:55;;;;;;;15.50;11.98;;;;;;;20.08;78.98;99862.34;6022876;23;20101;-75
2022/08/08 00:27:21;;;;;;;16.23;11.32;;;;;;;20.05;78.72;99859.97;6022599;23;20400;-77
2022/08/08 00:29:59;;;;;;;12.93;10.90;;;;;;;20.09;78.26;99864.88;5998187;23;20125;-79
2022/08/08 00:32:36;;;;;;;15.93;11.38;;;;;;;20.06;78.05;99856.25;5998653;23;20025;-81
2022/08/08 00:35:22;;;;;;;15.60;12.23;;;;;;;20.02;78.07;99854.88;6086163;23;20021;-76
2022/08/08 00:37:56;;;;;;;18.60;12.75;;;;;;;20.00;78.14;99860.44;6114606;23;20468;-78
2022/08/08 00:40:27;;;;;;;16.02;12.30;;;;;;;20.02;78.41;99857.59;6162553;22;20023;-78
2022/08/08 00:43:05;;;;;;;20.33;12.60;;;;;;;20.02;78.34;99863.00;6246002;22;20110;-76
2022/08/08 00:45:42;;;;;;;18.83;12.82;;;;;;;19.99;78.28;99860.63;6182882;22;20015;-74
2022/08/08 00:48:37;;;;;;;17.17;13.25;;;;;;;20.02;78.32;99866.56;6212514;22;20067;-73
2022/08/08 00:51:27;;;;;;;17.98;12.82;;;;;;;20.01;78.07;99869.41;6243939;22;20019;-74
2022/08/08 00:54:39;;;;;;;16.10;12.77;;;;;;;20.06;78.13;99875.19;6216589;22;20237;-73
2022/08/08 00:57:40;;;;;;;17.73;12.30;;;;;;;20.07;78.15;99880.47;6120135;23;20016;-75
2022/08/08 01:00:16;;;;;;;19.13;13.73;;;;;;;20.01;78.23;99877.53;6116274;23;20021;-74
2022/08/08 01:03:07;;;;;;;22.20;16.33;;;;;;;19.99;78.30;99874.16;6116958;23;20476;-74
2022/08/08 01:06:13;;;;;;;20.10;15.20;;;;;;;20.07;77.99;99872.34;6113019;23;20013;-74
2022/08/08 01:09:06;;;;;;;17.10;13.43;;;;;;;20.07;78.09;99872.34;6114041;23;20072;-76
2022/08/08 01:11:41;;;;;;;21.55;15.05;;;;;;;20.03;78.42;99873.66;6095633;23;20646;-74
2022/08/08 01:14:32;;;;;;;18.92;14.65;;;;;;;19.96;78.12;99869.09;6087698;23;20012;-75
2022/08/08 01:17:16;;;;;;;20.52;15.30;;;;;;;20.05;78.38;99871.66;6126267;23;20021;-78
2022/08/08 01:19:53;;;;;;;19.75;15.38;;;;;;;19.99;77.97;99868.72;6093284;23;20024;-78
2022/08/08 01:22:48;;;;;;;25.08;16.25;;;;;;;20.06;78.14;99875.19;6119301;23;20067;-79
2022/08/08 01:25:47;;;;;;;18.83;14.57;;;;;;;20.10;78.02;99871.13;6112817;23;20059;-74
2022/08/08 01:28:51;;;;;;;17.25;14.38;;;;;;;20.11;78.07;99872.84;6115030;23;20013;-77
2022/08/08 01:31:51;;;;;;;18.13;13.68;;;;;;;20.11;77.44;99870.13;6021676;23;20021;-75
2022/08/08 01:35:03;;;;;;;15.15;12.43;;;;;;;20.07;77.10;99872.34;5987962;23;20387;-76
2022/08/08 01:38:09;;;;;;;16.45;12.40;;;;;;;20.07;77.08;99864.22;5950777;23;20020;-78
2022/08/08 01:41:01;;;;;;;16.52;13.23;;;;;;;20.06;77.02;99870.63;5953687;23;20064;-78
2022/08/08 01:43:47;;;;;;;19.27;12.73;;;;;;;19.98;76.99;99865.19;5970652;23;20048;-74
2022/08/08 01:46:29;;;;;;;17.30;12.85;;;;;;;20.02;77.10;99866.56;5979383;23;20026;-74
2022/08/08 01:49:18;;;;;;;15.57;11.70;;;;;;;20.03;76.95;99867.41;5981524;23;20391;-74
2022/08/08 01:52:01;;;;;;;13.50;10.93;;;;;;;20.00;76.58;99857.75;5979518;23;20027;-76
2022/08/08 01:54:56;;;;;;;11.80;9.82;;;;;;;19.98;76.25;99867.88;5955486;23;20019;-76
2022/08/08 01:57:33;;;;;;;14.98;10.48;;;;;;;19.95;76.29;99865.53;5868048;24;20552;-77
2022/08/08 02:00:16;;;;;;;14.98;10.63;;;;;;;19.96;76.61;99866.38;5852821;24;20017;-66
2022/08/08 02:03:16;;;;;;;12.52;9.70;;;;;;;19.91;76.60;99859.59;5854810;24;20025;-69
2022/08/08 02:06:04;;;;;;;17.35;10.95;;;;;;;19.94;76.57;99864.69;5865217;24;20082;-71
2022/08/08 02:08:38;;;;;;;;;;;;;;;20.02;76.07;99861.13;5908456;24;20432;-69
2022/08/08 02:11:12;;;;;;;13.25;8.68;;;;;;;19.82;73.88;99862.44;5967424;23;19985;-70
2022/08/08 02:13:54;;;;;;;15.20;10.48;;;;;;;19.72;72.59;99867.13;6033332;23;20021;-68
2022/08/08 02:16:22;;;;;;;16.17;9.75;;;;;;;19.60;71.70;99863.00;6091834;23;20457;-68
2022/08/08 02:18:59;;;;;;;11.65;8.38;;;;;;;19.52;72.08;99861.13;6091636;23;20018;-69
2022/08/08 02:24:23;;;;;;;12.32;8.50;;;;;;;19.45;71.34;99870.84;6106344;23;20090;-69
2022/08/08 02:26:54;;;;;;;14.43;10.68;;;;;;;19.43;71.78;99872.84;6106507;23;20029;-69
2022/08/08 02:29:25;;;;;;;11.88;8.75;;;;;;;19.43;71.50;99876.41;6081805;23;20088;-71
2022/08/08 02:32:06;;;;;;;14.85;8.38;;;;;;;19.36;71.02;99869.94;6056618;23;20025;-70
2022/08/08 02:34:51;;;;;;;12.25;8.95;;;;;;;19.32;70.90;99873.13;6173555;22;20350;-71
2022/08/08 02:37:30;;;;;;;11.47;8.47;;;;;;;19.27;70.87;99870.91;6199278;22;20048;-71
2022/08/08 02:40:14;;;;;;;14.68;8.75;;;;;;;19.28;71.67;99871.78;6238013;22;20015;-71
2022/08/08 02:42:54;;;;;;;13.27;8.50;;;;;;;19.19;70.15;99874.41;6239949;22;20095;-72
2022/08/08 02:45:44;;;;;;;15.60;10.75;;;;;;;19.18;70.89;99880.84;6204156;22;20378;-67
2022/08/08 02:48:55;;;;;;;11.57;8.05;;;;;;;19.23;72.94;99885.75;6229606;22;20451;-71
2022/08/08 02:51:23;;;;;;;14.00;7.90;;;;;;;19.13;75.41;99885.84;6229724;22;20022;-71
2022/08/08 02:54:16;;;;;;;17.02;9.48;;;;;;;19.21;77.77;99895.88;6230697;22;20016;-71
2022/08/08 02:57:04;;;;;;;15.25;9.52;;;;;;;19.26;78.16;99903.50;6229456;22;20577;-70
2022/08/08 02:59:47;;;;;;;11.63;7.72;;;;;;;19.19;78.06;99898.72;6114322;23;20044;-73
2022/08/08 03:02:34;;;;;;;13.65;8.18;;;;;;;19.27;79.09;99918.72;6151001;23;20361;-76
2022/08/08 03:05:18;;;;;;;11.05;7.85;;;;;;;19.14;79.25;99913.72;6094964;23;20096;-76
2022/08/08 03:08:25;;;;;;;11.80;7.47;;;;;;;19.22;79.02;99916.47;6126186;23;20028;-75
2022/08/08 03:11:30;;;;;;;12.15;8.20;;;;;;;19.19;79.89;99914.09;6082077;23;20449;-77
2022/08/08 03:14:18;;;;;;;13.93;8.18;;;;;;;19.17;79.61;99910.72;6079013;23;20017;-75
2022/08/08 03:16:46;;;;;;;10.48;6.75;;;;;;;19.08;78.93;99919.75;6079442;23;20376;-74
2022/08/08 03:19:44;;;;;;;15.27;7.30;;;;;;;19.07;79.01;99916.22;6035072;23;20049;-76
2022/08/08 03:22:08;;;;;;;11.48;6.82;;;;;;;18.96;78.73;99921.84;6050462;23;20014;-74
2022/08/08 03:24:33;;;;;;;11.65;7.25;;;;;;;18.95;79.26;99924.75;6054466;23;20017;-74
2022/08/08 03:27:18;;;;;;;9.07;6.15;;;;;;;19.05;79.31;99928.19;6079718;23;20025;-76
2022/08/08 03:29:51;;;;;;;10.27;7.00;;;;;;;19.06;79.04;99928.03;6032661;23;20035;-75
2022/08/08 03:35:04;;;;;;;10.13;6.15;;;;;;;19.14;78.52;99941.59;6079700;23;20028;-74
2022/08/08 03:37:29;;;;;;;7.82;5.72;;;;;;;19.14;78.09;99933.50;6132046;23;20028;-75
2022/08/08 03:39:54;;;;;;;9.02;6.35;;;;;;;19.12;78.10;99932.81;6141944;23;20016;-73
2022/08/08 03:42:20;;;;;;;10.50;6.18;;;;;;;19.03;75.01;99939.16;6117922;23;20353;-75
2022/08/08 03:44:45;;;;;;;11.88;5.63;;;;;;;18.96;72.78;99943.47;6118389;23;20403;-76
2022/08/08 03:47:10;;;;;;;11.68;5.95;;;;;;;18.91;71.15;99945.81;6157039;22;20011;-77
2022/08/08 03:49:34;;;;;;;13.93;6.10;;;;;;;18.85;70.96;99946.41;6229732;22;20011;-76
2022/08/08 03:51:59;;;;;;;10.90;6.63;;;;;;;18.79;70.52;99956.00;6204268;22;20015;-75
2022/08/08 03:54:27;;;;;;;9.70;6.30;;;;;;;18.77;70.32;99957.16;6205510;22;20354;-75
2022/08/08 03:56:53;;;;;;;8.23;5.78;;;;;;;18.71;69.88;99950.53;6205697;22;20472;-78
2022/08/08 03:59:18;;;;;;;6.75;5.45;;;;;;;18.66;69.83;99960.06;6205062;22;20015;-75
2022/08/08 04:01:43;;;;;;;8.80;5.43;;;;;;;18.62;69.72;99964.09;6230837;22;20015;-76
2022/08/08 04:04:09;;;;;;;9.88;5.82;;;;;;;18.59;69.46;99959.00;6209793;22;20018;-74
2022/08/08 04:06:38;;;;;;;8.00;5.78;;;;;;;18.60;69.19;99971.50;6188762;22;20072;-74
2022/08/08 04:09:07;;;;;;;9.32;4.97;;;;;;;18.63;69.62;99963.06;6239241;22;20465;-74
2022/08/08 04:11:32;;;;;;;7.10;5.13;;;;;;;18.63;69.17;99963.94;6212366;22;20028;-75
2022/08/08 04:13:57;;;;;;;13.80;6.28;;;;;;;18.65;69.33;99966.47;6234794;22;20020;-73
2022/08/08 04:16:22;;;;;;;11.77;6.10;;;;;;;18.66;68.79;99970.88;6230519;22;20102;-75
2022/08/08 04:18:47;;;;;;;12.00;6.28;;;;;;;18.65;68.65;99971.88;6233845;22;20012;-73
2022/08/08 04:21:15;;;;;;;8.43;5.53;;;;;;;18.66;68.80;99973.56;6230069;22;20019;-77
2022/08/08 04:23:41;;;;;;;10.20;5.68;;;;;;;18.66;68.31;99969.03;6231754;22;20019;-75
2022/08/08 04:26:06;;;;;;;10.88;6.80;;;;;;;18.68;68.64;99974.28;6203610;22;20022;-72
2022/08/08 04:28:31;;;;;;;13.98;7.47;;;;;;;18.77;71.39;99979.59;6228972;22;20025;-73
2022/08/08 04:30:56;;;;;;;14.38;9.38;;;;;;;18.91;72.36;99977.38;6228801;22;20347;-74
2022/08/08 04:33:21;;;;;;;12.90;7.43;;;;;;;19.02;72.95;99975.28;6203313;22;20410;-72
2022/08/08 04:35:47;;;;;;;9.90;5.75;;;;;;;19.13;72.91;99972.34;6203509;22;20671;-74
2022/08/08 04:38:11;;;;;;;10.75;6.80;;;;;;;19.26;73.08;99980.06;6203276;22;20046;-74
2022/08/08 04:40:40;;;;;;;10.13;5.82;;;;;;;19.36;73.18;99986.22;6204146;22;20020;-74
2022/08/08 04:43:05;;;;;;;12.18;5.88;;;;;;;19.47;73.31;99988.66;6229933;22;20020;-72
2022/08/08 04:45:34;;;;;;;11.65;5.78;;;;;;;19.56;73.29;99989.59;6228652;22;20016;-73
2022/08/08 04:48:00;;;;;;;10.93;5.88;;;;;;;19.60;73.26;99990.97;6230115;22;20427;-73
2022/08/08 04:50:30;;;;;;;14.35;7.15;;;;;;;19.65;73.27;99996.75;6229062;22;20015;-74
2022/08/08 04:52:56;;;;;;;10.25;5.72;;;;;;;19.68;73.12;100004.56;6228597;22;20046;-73
2022/08/08 04:55:21;;;;;;;7.82;6.07;;;;;;;19.70;72.47;99998.97;6228447;22;20359;-74
2022/08/08 04:57:45;;;;;;;10.55;5.53;;;;;;;19.70;72.49;100002.53;6202632;22;20358;-73
2022/08/08 05:00:11;;;;;;;11.38;6.22;;;;;;;19.72;72.66;99997.81;6230055;22;20018;-73
2022/08/08 05:02:36;;;;;;;11.05;6.68;;;;;;;19.77;71.81;99991.91;6230546;22;20455;-74
2022/08/08 05:05:02;;;;;;;9.05;5.43;;;;;;;19.82;71.77;99986.88;6202233;22;20046;-73
2022/08/08 05:07:29;;;;;;;10.82;5.78;;;;;;;19.93;72.01;99994.72;6228503;22;20019;-72
2022/08/08 05:09:54;;;;;;;10.55;6.32;;;;;;;20.04;71.48;99993.59;6229433;22;20092;-74
2022/08/08 05:12:20;;;;;;;14.90;7.85;;;;;;;20.18;71.49;99998.41;6202621;22;20145;-73
2022/08/08 05:14:45;;;;;;;19.13;11.10;;;;;;;20.26;71.04;99993.88;6202557;22;20043;-72
2022/08/08 05:17:09;;;;;;;16.60;10.75;;;;;;;20.35;70.59;100000.19;6227945;22;20084;-73
2022/08/08 05:19:36;;;;;;;18.10;8.73;;;;;;;20.44;69.88;99991.09;6227929;22;20039;-72
2022/08/08 05:22:01;;;;;;;9.60;6.15;;;;;;;20.53;69.29;99987.41;6202508;22;20077;-72
2022/08/08 05:24:30;;;;;;;7.18;4.65;;;;;;;20.68;68.83;99987.59;6228107;22;20070;-72
2022/08/08 05:26:55;;;;;;;7.95;5.78;;;;;;;20.95;68.76;99984.59;6177299;22;20018;-72
2022/08/08 05:29:19;;;;;;;10.75;5.88;;;;;;;21.38;67.66;99997.00;6230004;22;20016;-72
2022/08/08 05:31:44;;;;;;;6.43;4.88;;;;;;;21.70;66.40;99990.69;6202797;22;20351;-72
2022/08/08 05:34:21;;;;;;;7.93;5.32;;;;;;;21.95;65.55;99999.63;6229674;22;20537;-72
2022/08/08 05:36:48;;;;;;;7.78;4.93;;;;;;;22.05;64.89;99997.59;6228266;22;20076;-72
2022/08/08 05:39:17;;;;;;;6.82;5.07;;;;;;;22.38;64.95;99994.75;6228240;22;20022;-75
2022/08/08 05:41:44;;;;;;;5.63;4.60;;;;;;;22.85;63.80;100012.88;6228792;22;20110;-76
2022/08/08 05:44:12;;;;;;;5.45;4.63;;;;;;;23.38;63.34;100011.97;6204583;22;20455;-76
2022/08/08 05:46:39;;;;;;;5.85;4.97;;;;;;;23.81;60.98;100007.72;6232587;22;20025;-79
2022/08/08 05:49:04;;;;;;;9.75;5.60;;;;;;;24.03;59.81;100012.22;6231119;22;20338;-76
2022/08/08 05:51:29;;;;;;;6.80;5.30;;;;;;;24.10;59.34;100010.44;6205855;22;20407;-75
2022/08/08 05:53:56;;;;;;;8.18;6.22;;;;;;;24.09;58.90;100008.75;6211701;22;20023;-73
2022/08/08 05:56:22;;;;;;;10.00;5.10;;;;;;;24.14;59.60;100016.38;6243624;22;20034;-75
2022/08/08 05:58:53;;;;;;;6.70;5.30;;;;;;;24.43;59.09;100010.91;6242958;22;20067;-75
2022/08/08 06:01:21;;;;;;;9.18;5.90;;;;;;;24.92;57.80;100013.88;6217908;22;20414;-74
2022/08/08 06:03:50;;;;;;;10.38;5.60;;;;;;;25.28;56.00;100012.97;6191438;22;20095;-75
2022/08/08 06:06:15;;;;;;;9.10;5.75;;;;;;;25.49;55.00;100023.88;6241263;22;20019;-74
2022/08/08 06:08:50;;;;;;;7.82;6.10;;;;;;;25.55;54.23;100028.53;6231509;22;20024;-75
2022/08/08 06:11:15;;;;;;;12.43;7.28;;;;;;;25.27;54.13;100027.66;6230542;22;20027;-74
2022/08/08 06:13:40;;;;;;;8.00;5.45;;;;;;;24.98;54.57;100027.75;6203634;22;20026;-75
2022/08/08 06:16:06;;;;;;;11.32;5.93;;;;;;;24.61;54.79;100027.72;6229117;22;20016;-75
2022/08/08 06:18:52;;;;;;;8.77;6.75;;;;;;;24.21;55.60;100034.50;6230181;22;20019;-73
2022/08/08 06:21:20;;;;;;;10.07;6.15;;;;;;;23.93;56.57;100040.78;6230664;22;20027;-74
2022/08/08 06:23:46;;;;;;;12.23;9.23;;;;;;;23.49;55.98;100033.31;6230265;22;20351;-75
2022/08/08 06:26:13;;;;;;;13.13;6.03;;;;;;;23.07;55.56;100028.38;6237413;22;20020;-74
2022/08/08 06:29:02;;;;;;;12.38;6.82;;;;;;;22.86;56.29;100034.47;6240428;22;20020;-74
2022/08/08 06:31:34;;;;;;;14.63;6.55;;;;;;;22.44;56.58;100030.22;6232603;22;20022;-74
2022/08/08 06:34:23;;;;;;;10.88;7.20;;;;;;;22.33;57.45;100040.63;6233720;22;20166;-75
2022/08/08 06:36:49;;;;;;;12.10;6.82;;;;;;;21.98;57.77;100040.06;6204698;22;20354;-75
2022/08/08 06:39:14;;;;;;;8.13;6.20;;;;;;;21.76;58.13;100054.31;6204260;22;20094;-71
2022/08/08 06:41:49;;;;;;;9.55;6.85;;;;;;;21.62;58.91;100047.69;6229311;22;20098;-73
2022/08/08 06:44:17;;;;;;;9.75;7.28;;;;;;;21.50;58.74;100053.63;6229769;22;20023;-71
2022/08/08 06:46:43;;;;;;;12.93;7.75;;;;;;;21.41;58.83;100050.09;6230335;22;20094;-71
2022/08/08 06:49:08;;;;;;;11.23;7.05;;;;;;;21.29;58.59;100046.84;6230369;22;20012;-72
2022/08/08 06:51:34;;;;;;;15.70;7.75;;;;;;;21.19;59.00;100057.03;6230531;22;20020;-71
2022/08/08 06:54:01;;;;;;;9.35;7.63;;;;;;;21.12;59.65;100058.66;6229945;22;20460;-72
2022/08/08 06:56:32;;;;;;;13.00;7.60;;;;;;;21.08;60.12;100057.31;6229993;22;20019;-71
2022/08/08 06:58:58;;;;;;;13.98;7.85;;;;;;;21.11;62.50;100056.94;6204488;22;20027;-71
2022/08/08 07:01:26;;;;;;;13.77;8.38;;;;;;;21.19;63.75;100059.72;6204210;22;20031;-71
2022/08/08 07:04:08;;;;;;;12.38;7.95;;;;;;;21.37;64.28;100070.41;6229314;22;20379;-72
2022/08/08 07:06:41;;;;;;;14.65;7.72;;;;;;;21.41;64.38;100062.81;6229478;22;20016;-72
2022/08/08 07:09:18;;;;;;;12.60;8.63;;;;;;;21.54;64.04;100066.72;6230009;22;20016;-71
2022/08/08 07:11:47;;;;;;;12.77;8.57;;;;;;;21.57;64.51;100070.91;6204182;22;20077;-72
2022/08/08 07:14:16;;;;;;;12.85;8.32;;;;;;;21.64;64.54;100061.94;6203852;22;20015;-71
2022/08/08 07:17:00;;;;;;;10.52;8.15;;;;;;;21.81;64.27;100064.63;6229233;22;20015;-71
2022/08/08 07:19:33;;;;;;;16.25;9.05;;;;;;;22.02;63.92;100063.09;6240935;22;20077;-72
2022/08/08 07:22:05;;;;;;;13.50;8.82;;;;;;;22.26;63.35;100066.78;6239790;22;20332;-73
2022/08/08 07:24:40;;;;;;;15.30;9.02;;;;;;;22.49;62.96;100056.84;6229631;22;20016;-72
2022/08/08 07:27:11;;;;;;;16.17;9.50;;;;;;;22.73;62.03;100059.47;6204181;22;20051;-72
2022/08/08 07:29:38;;;;;;;21.30;9.57;;;;;;;22.93;61.54;100064.47;6229563;22;20011;-73
2022/08/08 07:32:05;;;;;;;15.77;10.32;;;;;;;23.05;60.56;100079.38;6229739;22;20073;-70
2022/08/08 07:34:32;;;;;;;15.45;10.40;;;;;;;23.12;60.38;100069.47;6229456;22;20117;-71
2022/08/08 07:37:04;;;;;;;12.20;8.90;;;;;;;23.20;60.31;100071.28;6229221;22;20023;-71
2022/08/08 07:39:30;;;;;;;15.63;10.05;;;;;;;23.24;59.90;100076.22;6203595;22;20015;-72
2022/08/08 07:41:57;;;;;;;15.20;9.13;;;;;;;23.35;59.75;100070.34;6201896;22;20379;-72
2022/08/08 07:44:23;;;;;;;15.20;12.45;;;;;;;23.52;59.08;100073.81;6152223;22;20492;-72
2022/08/08 07:46:48;;;;;;;18.55;10.80;;;;;;;23.73;58.09;100073.97;6202199;22;20382;-72
2022/08/08 07:49:16;;;;;;;19.27;9.88;;;;;;;23.88;57.19;100072.13;6202960;22;20023;-72
2022/08/08 07:51:42;;;;;;;23.25;10.07;;;;;;;24.01;57.22;100076.09;6189476;22;20015;-71
2022/08/08 07:54:11;;;;;;;21.77;11.50;;;;;;;24.09;56.91;100073.28;6207873;22;20026;-71
2022/08/08 07:57:06;;;;;;;13.10;10.00;;;;;;;24.18;56.55;100080.31;6202951;22;20407;-72
2022/08/08 07:59:36;;;;;;;14.43;10.00;;;;;;;24.17;56.10;100065.84;6179460;22;20027;-72
2022/08/08 08:02:05;;;;;;;18.67;11.40;;;;;;;24.23;56.15;100080.66;6162647;22;20015;-71
2022/08/08 08:04:41;;;;;;;15.98;10.30;;;;;;;24.36;55.97;100080.00;6167558;22;20071;-72
2022/08/08 08:07:09;;;;;;;20.85;11.95;;;;;;;24.46;55.11;100081.41;6187833;22;20022;-71
2022/08/08 08:09:38;;;;;;;14.23;10.68;;;;;;;24.58;54.45;100070.88;6207000;22;20023;-72
2022/08/08 08:12:04;;;;;;;13.07;10.13;;;;;;;24.70;54.16;100072.09;6205526;22;20019;-71
2022/08/08 08:15:01;;;;;;;16.58;10.18;;;;;;;25.02;53.33;100072.72;6231683;22;20020;-72
2022/08/08 08:17:29;;;;;;;15.85;10.05;;;;;;;25.71;51.86;100062.94;6231649;22;20016;-72
2022/08/08 08:19:58;;;;;;;15.60;10.27;;;;;;;27.13;49.35;100061.47;6229396;22;20015;-73
2022/08/08 08:22:23;;;;;;;20.85;10.35;;;;;;;29.37;44.58;100058.41;6229207;22;20489;-77
2022/08/08 08:24:51;;;;;;;14.18;9.55;;;;;;;31.08;40.14;100061.38;6232017;22;20456;-80
2022/08/08 08:27:20;;;;;;;16.60;10.73;;;;;;;32.29;37.49;100143.75;6233748;22;20022;-77
2022/08/08 08:29:48;;;;;;;13.20;10.48;;;;;;;33.42;35.29;100071.38;6231014;22;20089;-73
2022/08/08 08:32:13;;;;;;;11.98;10.63;;;;;;;34.01;34.25;100082.09;6230413;22;20020;-73
2022/08/08 08:34:38;;;;;;;17.48;10.45;;;;;;;33.80;34.07;100080.91;6231251;22;20023;-76
2022/08/08 08:37:04;;;;;;;11.82;9.32;;;;;;;33.01;35.04;100079.94;6205641;22;20024;-71
2022/08/08 08:39:30;;;;;;;14.57;10.20;;;;;;;32.17;36.49;100073.88;6228217;22;20372;-72
2022/08/08 08:41:56;;;;;;;17.35;11.07;;;;;;;31.36;37.33;100069.91;6227994;22;20351;-72
2022/08/08 08:44:21;;;;;;;16.15;11.25;;;;;;;31.60;36.96;100075.50;6202967;22;20118;-71
2022/08/08 08:46:46;;;;;;;14.30;10.88;;;;;;;31.83;37.04;100083.00;6230127;22;20035;-70
2022/08/08 08:49:13;;;;;;;17.50;11.43;;;;;;;32.15;36.36;100075.22;6203358;22;20023;-70
2022/08/08 08:51:42;;;;;;;13.68;10.35;;;;;;;32.81;35.03;100075.69;6228503;22;20077;-71
2022/08/08 08:54:08;;;;;;;21.10;11.15;;;;;;;33.04;35.12;100072.00;6202617;22;20038;-72
2022/08/08 08:56:36;;;;;;;15.75;11.32;;;;;;;33.25;34.50;100084.31;6228482;22;20042;-72
2022/08/08 08:59:12;;;;;;;15.70;11.07;;;;;;;33.99;32.75;100076.78;6204743;22;20023;-71
2022/08/08 09:01:42;;;;;;;13.25;10.90;;;;;;;35.20;31.74;100072.16;6228712;22;20490;-72
2022/08/08 09:04:13;;;;;;;17.80;12.35;;;;;;;36.20;29.85;100072.53;6178594;22;20011;-71
2022/08/08 09:06:41;;;;;;;12.77;11.40;;;;;;;37.47;27.89;100078.72;6203159;22;20027;-73
2022/08/08 09:09:15;;;;;;;14.35;10.68;;;;;;;37.73;26.89;100084.06;6228689;22;20020;-71
2022/08/08 09:11:44;;;;;;;19.38;10.10;;;;;;;37.67;27.50;100079.59;6227857;22;20454;-72
2022/08/08 09:14:10;;;;;;;15.57;10.65;;;;;;;37.05;28.04;100077.75;6228668;22;20019;-72
2022/08/08 09:16:37;;;;;;;12.43;10.82;;;;;;;35.99;29.51;100077.09;6203185;22;20019;-71
2022/08/08 09:19:02;;;;;;;12.95;10.20;;;;;;;34.71;30.45;100078.72;6177410;22;20019;-72
2022/08/08 09:21:28;;;;;;;14.25;10.75;;;;;;;33.46;32.34;100072.56;6229000;22;20020;-74
2022/08/08 09:23:54;;;;;;;18.70;11.18;;;;;;;32.34;33.79;100074.03;6203877;22;20090;-73
2022/08/08 09:26:35;;;;;;;16.83;11.10;;;;;;;31.66;35.84;100078.16;6177866;22;20073;-72
2022/08/08 09:29:05;;;;;;;18.50;12.00;;;;;;;30.62;37.81;100084.81;6231238;22;20065;-73
2022/08/08 09:31:54;;;;;;;13.05;11.65;;;;;;;29.83;38.35;100084.69;6203217;22;20019;-72
2022/08/08 09:34:24;;;;;;;17.20;10.98;;;;;;;29.03;40.40;100080.75;6203377;22;20027;-71
2022/08/08 09:37:01;;;;;;;15.13;11.18;;;;;;;28.88;41.52;100076.41;6228820;22;20081;-72
2022/08/08 09:39:31;;;;;;;18.52;11.63;;;;;;;28.90;41.36;100078.91;6230234;22;20022;-71
2022/08/08 09:42:01;;;;;;;14.88;11.23;;;;;;;28.96;41.56;100085.44;6232885;22;20026;-72
2022/08/08 09:44:29;;;;;;;17.88;10.48;;;;;;;28.88;41.75;100089.28;6231107;22;20026;-71
2022/08/08 09:46:56;;;;;;;13.25;9.63;;;;;;;28.68;42.13;100083.81;6238961;22;20194;-71
2022/08/08 09:49:21;;;;;;;11.00;9.18;;;;;;;28.64;42.09;100081.75;6229900;22;20015;-71
2022/08/08 09:51:54;;;;;;;13.05;10.38;;;;;;;29.00;41.85;100076.56;6230314;22;20083;-71
2022/08/08 09:54:24;;;;;;;14.73;11.73;;;;;;;29.14;41.02;100078.16;6230354;22;20019;-73
2022/08/08 09:57:00;;;;;;;10.93;9.35;;;;;;;29.16;40.59;100084.28;6230005;22;20443;-71
2022/08/08 09:59:28;;;;;;;12.38;9.15;;;;;;;28.98;41.41;100077.84;6177838;22;20019;-73
2022/08/08 10:01:52;;;;;;;13.25;9.77;;;;;;;28.78;41.61;100084.22;6229218;22;20019;-73
2022/08/08 10:04:21;;;;;;;12.70;10.50;;;;;;;28.63;41.32;100086.38;6229526;22;20082;-73
2022/08/08 10:06:47;;;;;;;14.93;9.43;;;;;;;28.35;41.92;100077.59;6230150;22;20017;-73
2022/08/08 10:09:11;;;;;;;14.50;10.48;;;;;;;28.10;42.96;100078.22;6231032;22;20103;-70
2022/08/08 10:11:37;;;;;;;15.82;9.80;;;;;;;27.80;43.37;100076.97;6233779;22;20023;-72
2022/08/08 10:14:03;;;;;;;13.18;10.88;;;;;;;27.48;44.12;100087.69;6235665;22;20026;-72
2022/08/08 10:16:42;;;;;;;16.83;10.55;;;;;;;27.28;45.21;100089.53;6229056;22;20020;-71
2022/08/08 10:19:10;;;;;;;18.48;10.52;;;;;;;26.73;45.82;100093.31;6230557;22;20015;-71
2022/08/08 10:21:36;;;;;;;11.25;9.40;;;;;;;26.35;46.24;100095.59;6228794;22;20026;-71
2022/08/08 10:24:06;;;;;;;14.50;11.23;;;;;;;26.06;47.71;100091.19;6231504;22;20069;-71
2022/08/08 10:26:34;;;;;;;12.52;10.77;;;;;;;25.86;47.99;100101.09;6235297;22;20015;-71
2022/08/08 10:29:04;;;;;;;15.73;10.30;;;;;;;25.70;48.45;100095.91;6230307;22;20390;-71
2022/08/08 10:34:17;;;;;;;13.95;10.18;;;;;;;25.66;48.59;100096.28;6230443;22;20354;-72
2022/08/08 10:36:43;;;;;;;12.50;9.68;;;;;;;25.79;48.71;100094.72;6234761;22;20046;-70
2022/08/08 10:39:10;;;;;;;14.63;9.02;;;;;;;25.87;48.41;100092.69;6237962;22;20026;-72
2022/08/08 10:41:40;;;;;;;14.00;9.85;;;;;;;26.04;47.89;100093.25;6238101;22;20015;-71
2022/08/08 10:44:10;;;;;;;10.82;9.65;;;;;;;26.44;46.99;100088.09;6233238;22;20418;-71
2022/08/08 10:46:34;;;;;;;10.35;7.80;;;;;;;26.97;45.90;100079.13;6205223;22;20074;-72
2022/08/08 10:48:59;;;;;;;12.27;8.52;;;;;;;27.44;45.19;100082.81;6233414;22;20020;-73
2022/08/08 10:51:29;;;;;;;10.77;9.07;;;;;;;27.66;44.68;100084.34;6235210;22;20351;-73
2022/08/08 10:53:55;;;;;;;9.43;7.85;;;;;;;27.57;44.33;100079.28;6231938;22;20022;-73
2022/08/08 10:56:21;;;;;;;10.55;8.00;;;;;;;27.42;44.75;100076.72;6234648;22;20019;-74
2022/08/08 10:58:46;;;;;;;8.65;7.75;;;;;;;27.20;45.34;100067.00;6237221;22;20439;-78
2022/08/08 11:01:11;;;;;;;9.07;8.15;;;;;;;27.02;45.84;100068.41;6237966;22;20019;-73
2022/08/08 11:03:43;;;;;;;12.40;8.82;;;;;;;26.92;46.10;100072.53;6232286;22;20016;-73
2022/08/08 11:06:09;;;;;;;10.25;8.60;;;;;;;26.68;46.39;100073.91;6231704;22;20026;-76
2022/08/08 11:08:35;;;;;;;12.00;8.57;;;;;;;26.64;46.68;100072.63;6233220;22;20020;-77
2022/08/08 11:11:08;;;;;;;12.15;7.97;;;;;;;26.69;46.71;100065.50;6210386;22;20020;-78
2022/08/08 11:13:43;;;;;;;19.83;9.05;;;;;;;26.80;46.73;100066.81;6240623;22;20015;-75
2022/08/08 11:16:16;;;;;;;12.88;8.60;;;;;;;26.70;46.80;100075.41;6185455;22;20043;-75
2022/08/08 11:18:43;;;;;;;10.25;9.25;;;;;;;26.61;46.52;100075.78;6250492;22;20016;-75
2022/08/08 11:21:08;;;;;;;13.15;9.23;;;;;;;26.41;47.15;100077.56;6251546;22;20019;-75
2022/08/08 11:23:35;;;;;;;12.82;9.60;;;;;;;26.30;47.28;100071.59;6241962;22;20042;-73
2022/08/08 11:26:05;;;;;;;13.80;9.60;;;;;;;26.34;47.42;100078.34;6244881;22;20031;-76
2022/08/08 11:28:33;;;;;;;12.48;10.00;;;;;;;26.41;47.61;100080.31;6236210;22;20019;-73
2022/08/08 11:31:00;;;;;;;14.88;9.93;;;;;;;26.38;46.77;100082.38;6237459;22;20011;-77
2022/08/08 11:33:27;;;;;;;12.60;9.25;;;;;;;26.31;47.26;100077.91;6205325;22;20477;-75
2022/08/08 11:35:54;;;;;;;14.45;10.85;;;;;;;26.34;47.01;100088.44;6230175;22;20022;-73
2022/08/08 11:38:18;;;;;;;11.25;9.43;;;;;;;26.45;46.91;100081.56;6180100;22;20015;-75
2022/08/08 11:40:45;;;;;;;16.25;12.10;;;;;;;26.33;46.73;100082.13;6231105;22;20012;-76
2022/08/08 11:43:10;;;;;;;14.55;9.23;;;;;;;26.16;47.30;100083.47;6231228;22;20400;-76
2022/08/08 11:45:35;;;;;;;17.77;9.13;;;;;;;25.86;48.42;100076.50;6232938;22;20042;-76
2022/08/08 11:48:00;;;;;;;11.60;8.57;;;;;;;25.58;48.77;100080.03;6205855;22;20112;-78
2022/08/08 11:50:25;;;;;;;11.18;8.63;;;;;;;25.34;49.38;100091.31;6185595;22;20007;-78
2022/08/08 11:52:52;;;;;;;12.38;7.93;;;;;;;25.09;50.18;100079.94;6212463;22;20030;-77